Time;durP1;ratioP1;P1;durP2;ratioP2;P2;SDS_P1;SDS_P2;PMS_P1;PMS_P2;Temp;Humidity;BMP_temperature;BMP_pressure;BME280_temperature;BME280_humidity;BME280_pressure;Samples;Min_cycle;Max_cycle;Signal;HPM_P1;HPM_P2
2022/07/11 00:00:49;;;;;;;10.90;5.10;;;19.40;85.10;;;;;;5058109;28;20492;-49
2022/07/11 00:03:17;;;;;;;8.13;4.20;;;19.40;85.20;;;;;;5058373;28;20481;-49
2022/07/11 00:05:43;;;;;;;5.40;4.17;;;19.20;86.00;;;;;;5049794;28;20477;-49
2022/07/11 00:08:10;;;;;;;8.07;5.47;;;19.30;86.40;;;;;;5059570;28;20483;-49
2022/07/11 00:10:37;;;;;;;5.23;4.80;;;19.10;86.70;;;;;;5047286;28;20532;-49
2022/07/11 00:13:03;;;;;;;3.23;2.93;;;18.90;87.20;;;;;;5058443;28;20985;-48
2022/07/11 00:15:30;;;;;;;6.47;5.50;;;18.80;87.10;;;;;;5057561;28;20564;-49
2022/07/11 00:17:57;;;;;;;4.00;3.70;;;18.90;87.40;;;;;;5059037;28;20482;-48
2022/07/11 00:20:25;;;;;;;3.87;3.57;;;19.00;86.60;;;;;;5055062;28;20481;-49
2022/07/11 00:22:52;;;;;;;4.47;4.07;;;19.00;86.40;;;;;;5055473;28;20983;-49
2022/07/11 00:25:19;;;;;;;8.30;3.83;;;19.00;87.60;;;;;;5058104;28;21077;-49
2022/07/11 00:27:46;;;;;;;6.30;5.20;;;19.00;88.00;;;;;;5053640;28;20479;-49
2022/07/11 00:30:13;;;;;;;4.43;4.03;;;18.90;87.20;;;;;;5056025;28;20557;-49
2022/07/11 00:32:39;;;;;;;5.23;4.77;;;18.90;87.10;;;;;;5042203;28;20465;-49
2022/07/11 00:35:07;;;;;;;4.90;4.40;;;18.80;88.10;;;;;;5062619;28;20481;-48
2022/07/11 00:37:35;;;;;;;9.80;5.97;;;18.90;87.30;;;;;;5051126;28;20494;-49
2022/07/11 00:40:01;;;;;;;5.50;3.87;;;18.90;87.10;;;;;;5040044;28;20966;-49
2022/07/11 00:42:28;;;;;;;4.60;4.13;;;19.10;86.80;;;;;;5055045;28;20493;-53
2022/07/11 00:44:55;;;;;;;3.73;3.43;;;19.20;85.70;;;;;;5060237;28;20510;-53
2022/07/11 00:47:22;;;;;;;4.07;3.47;;;19.10;87.70;;;;;;5059128;28;20486;-49
2022/07/11 00:49:49;;;;;;;5.33;4.83;;;19.20;87.70;;;;;;5057472;28;20950;-49
2022/07/11 00:52:16;;;;;;;4.93;4.50;;;19.20;88.30;;;;;;5059702;28;20510;-49
2022/07/11 00:54:45;;;;;;;5.83;5.33;;;19.20;87.50;;;;;;5060996;28;20492;-48
2022/07/11 00:57:12;;;;;;;5.10;3.83;;;19.20;87.50;;;;;;5058290;28;21407;-48
2022/07/11 00:59:40;;;;;;;7.57;4.83;;;19.20;88.40;;;;;;5061239;28;20486;-48
2022/07/11 01:02:07;;;;;;;7.70;3.70;;;19.00;89.20;;;;;;5060519;28;20487;-49
2022/07/11 01:04:34;;;;;;;5.57;5.07;;;19.00;89.70;;;;;;5055996;28;20482;-49
2022/07/11 01:07:01;;;;;;;4.60;3.67;;;18.90;89.70;;;;;;5049561;28;20479;-49
2022/07/11 01:09:28;;;;;;;6.27;3.87;;;18.90;89.30;;;;;;5059490;28;20481;-50
2022/07/11 01:11:57;;;;;;;4.50;3.80;;;18.90;89.10;;;;;;5052576;28;20487;-49
2022/07/11 01:14:24;;;;;;;3.80;3.40;;;18.90;88.60;;;;;;5039250;28;20478;-48
2022/07/11 01:16:52;;;;;;;4.67;3.97;;;18.90;89.10;;;;;;5055001;28;20956;-48
2022/07/11 01:19:18;;;;;;;7.13;4.67;;;18.90;88.90;;;;;;5060292;28;20555;-48
2022/07/11 01:21:50;;;;;;;5.30;4.90;;;18.90;88.20;;;;;;5046965;28;20490;-48
2022/07/11 01:24:19;;;;;;;10.67;3.40;;;19.00;88.70;;;;;;5061081;28;20490;-48
2022/07/11 01:26:47;;;;;;;7.10;5.10;;;19.10;88.60;;;;;;5053123;28;20483;-48
2022/07/11 01:29:15;;;;;;;5.43;5.00;;;19.00;90.00;;;;;;5057036;28;20488;-49
2022/07/11 01:31:43;;;;;;;6.90;5.43;;;19.00;89.90;;;;;;5058469;28;20491;-49
2022/07/11 01:34:10;;;;;;;4.60;4.10;;;19.00;89.10;;;;;;5057491;28;20500;-49
2022/07/11 01:36:37;;;;;;;8.00;6.60;;;19.00;89.30;;;;;;5061302;28;20505;-49
2022/07/11 01:39:04;;;;;;;3.73;3.43;;;19.00;90.00;;;;;;5052163;28;20470;-49
2022/07/11 01:41:32;;;;;;;5.73;5.07;;;19.10;89.60;;;;;;5061982;28;20474;-49
2022/07/11 01:43:59;;;;;;;5.30;3.77;;;19.10;89.70;;;;;;5046137;28;20467;-48
2022/07/11 01:46:25;;;;;;;4.87;4.40;;;19.00;90.00;;;;;;5053050;28;20843;-48
2022/07/11 01:48:52;;;;;;;4.73;3.53;;;19.00;90.20;;;;;;5059997;28;20526;-48
2022/07/11 01:51:19;;;;;;;4.97;4.10;;;19.00;90.10;;;;;;5060040;28;20486;-49
2022/07/11 01:53:46;;;;;;;5.60;5.03;;;18.90;90.50;;;;;;5053972;28;20467;-49
2022/07/11 01:56:12;;;;;;;7.63;4.97;;;18.90;90.50;;;;;;5058623;28;20831;-49
2022/07/11 01:58:40;;;;;;;6.37;5.37;;;18.90;90.30;;;;;;5060208;28;20818;-49
2022/07/11 02:01:07;;;;;;;3.73;3.43;;;18.90;90.60;;;;;;5053108;28;20476;-48
2022/07/11 02:03:34;;;;;;;7.43;6.37;;;19.00;89.90;;;;;;5056350;28;20486;-49
2022/07/11 02:06:01;;;;;;;5.37;4.10;;;19.00;89.90;;;;;;5042452;28;20495;-49
2022/07/11 02:08:28;;;;;;;5.70;4.17;;;19.00;90.00;;;;;;5060620;28;21078;-49
2022/07/11 02:10:55;;;;;;;4.40;4.00;;;19.00;90.40;;;;;;5065952;28;20483;-49
2022/07/11 02:13:23;;;;;;;4.57;4.17;;;18.90;90.70;;;;;;5060384;28;20467;-48
2022/07/11 02:15:53;;;;;;;4.90;4.30;;;18.80;90.60;;;;;;5060167;28;20527;-48
2022/07/11 02:18:20;;;;;;;5.10;4.60;;;18.80;90.60;;;;;;5062302;28;21399;-48
2022/07/11 02:20:48;;;;;;;5.40;4.90;;;18.80;90.50;;;;;;5057447;28;20505;-48
2022/07/11 02:23:15;;;;;;;3.70;3.40;;;18.90;90.60;;;;;;5050846;28;20523;-48
2022/07/11 02:25:42;;;;;;;5.57;5.07;;;18.90;90.70;;;;;;5059404;28;20477;-49
2022/07/11 02:28:10;;;;;;;4.03;3.53;;;18.90;90.70;;;;;;5048479;28;20581;-49
2022/07/11 02:30:36;;;;;;;6.73;6.17;;;18.80;90.90;;;;;;5062328;28;20493;-48
2022/07/11 02:33:07;;;;;;;4.47;4.07;;;18.80;91.20;;;;;;5059633;28;20878;-49
2022/07/11 02:35:33;;;;;;;4.80;4.40;;;18.80;91.20;;;;;;5058894;28;20516;-49
2022/07/11 02:38:01;;;;;;;4.50;3.80;;;18.80;91.20;;;;;;5058258;28;20487;-49
2022/07/11 02:40:28;;;;;;;4.73;4.33;;;18.80;90.80;;;;;;5054444;28;20494;-49
2022/07/11 02:42:55;;;;;;;6.80;3.73;;;18.80;91.40;;;;;;5052521;28;20475;-48
2022/07/11 02:45:21;;;;;;;4.80;3.63;;;18.70;91.40;;;;;;5057827;28;21164;-49
2022/07/11 02:47:48;;;;;;;5.30;4.57;;;18.60;91.50;;;;;;5059218;28;20483;-49
2022/07/11 02:50:16;;;;;;;7.90;4.43;;;18.60;91.70;;;;;;5057947;28;20483;-49
2022/07/11 02:52:43;;;;;;;5.87;5.27;;;18.60;91.70;;;;;;5062685;28;20898;-49
2022/07/11 02:55:12;;;;;;;7.40;4.63;;;18.60;91.70;;;;;;5060427;28;20467;-49
2022/07/11 02:57:39;;;;;;;6.80;3.77;;;18.60;91.90;;;;;;5048222;28;20539;-48
2022/07/11 03:00:08;;;;;;;4.60;4.20;;;18.60;92.10;;;;;;5057237;28;20474;-48
2022/07/11 03:02:35;;;;;;;5.73;5.33;;;18.60;92.10;;;;;;5056391;28;20818;-49
2022/07/11 03:05:02;;;;;;;3.63;3.33;;;18.70;91.50;;;;;;5056579;28;20483;-49
2022/07/11 03:07:30;;;;;;;4.47;4.07;;;18.80;91.00;;;;;;5046687;28;20535;-50
2022/07/11 03:09:57;;;;;;;4.27;3.97;;;18.80;90.80;;;;;;5032325;28;20490;-49
2022/07/11 03:12:24;;;;;;;6.23;3.80;;;18.90;90.50;;;;;;5058346;28;20474;-49
2022/07/11 03:14:50;;;;;;;4.30;3.90;;;18.90;90.80;;;;;;5057549;28;20485;-49
2022/07/11 03:17:18;;;;;;;4.70;4.30;;;18.90;90.70;;;;;;5055023;28;20477;-49
2022/07/11 03:19:46;;;;;;;6.43;4.00;;;18.90;90.50;;;;;;5007814;28;20569;-49
2022/07/11 03:22:13;;;;;;;4.70;3.70;;;18.90;90.50;;;;;;5045740;28;20980;-49
2022/07/11 03:24:41;;;;;;;7.33;5.23;;;18.90;90.60;;;;;;5053680;28;20471;-49
2022/07/11 03:27:09;;;;;;;5.63;3.90;;;18.90;90.70;;;;;;5041425;28;20566;-48
2022/07/11 03:29:35;;;;;;;5.83;5.33;;;18.90;91.00;;;;;;5057850;28;21375;-49
2022/07/11 03:32:03;;;;;;;4.33;3.60;;;18.90;91.10;;;;;;5046617;28;20511;-48
2022/07/11 03:34:29;;;;;;;9.27;4.50;;;18.90;91.40;;;;;;5044806;28;20483;-49
2022/07/11 03:36:56;;;;;;;5.37;4.87;;;18.90;91.60;;;;;;5026545;28;20495;-48
2022/07/11 03:39:23;;;;;;;6.47;4.40;;;18.90;91.50;;;;;;5031937;28;20487;-48
2022/07/11 03:41:51;;;;;;;8.90;5.20;;;18.80;91.20;;;;;;5024790;28;20481;-49
2022/07/11 03:44:18;;;;;;;4.87;4.47;;;18.80;91.30;;;;;;5037265;28;20470;-49
2022/07/11 03:46:45;;;;;;;5.33;4.83;;;18.90;91.40;;;;;;5042851;28;20479;-48
2022/07/11 03:49:11;;;;;;;5.10;4.43;;;18.90;90.90;;;;;;5036718;28;20508;-49
2022/07/11 03:51:38;;;;;;;5.80;5.40;;;18.90;91.20;;;;;;5047951;28;20475;-49
2022/07/11 03:54:05;;;;;;;5.00;4.57;;;18.90;91.40;;;;;;5042956;28;20477;-48
2022/07/11 03:56:32;;;;;;;6.13;4.77;;;18.90;91.40;;;;;;5038806;28;21373;-48
2022/07/11 03:59:00;;;;;;;4.47;3.67;;;18.90;91.30;;;;;;5053684;28;20491;-49
2022/07/11 04:01:27;;;;;;;4.00;3.70;;;18.90;91.20;;;;;;5006755;28;20494;-48
2022/07/11 04:03:54;;;;;;;4.87;4.50;;;18.90;91.70;;;;;;5041667;28;20475;-48
2022/07/11 04:06:30;;;;;;;6.43;5.10;;;18.90;91.70;;;;;;4983336;28;20504;-48
2022/07/11 04:08:57;;;;;;;4.70;4.23;;;18.90;91.70;;;;;;5053130;28;20481;-48
2022/07/11 04:11:23;;;;;;;8.40;4.20;;;19.00;91.50;;;;;;5047488;28;20475;-48
2022/07/11 04:13:50;;;;;;;6.20;4.40;;;19.00;91.40;;;;;;5052221;28;20480;-48
2022/07/11 04:16:19;;;;;;;5.63;5.10;;;19.00;91.20;;;;;;5058069;28;20494;-49
2022/07/11 04:18:45;;;;;;;5.17;4.60;;;19.00;91.80;;;;;;5054006;28;21309;-49
2022/07/11 04:21:12;;;;;;;6.20;4.80;;;19.00;91.30;;;;;;5051308;28;20479;-48
2022/07/11 04:23:39;;;;;;;7.43;4.43;;;19.10;91.10;;;;;;5007684;28;20478;-49
2022/07/11 04:26:06;;;;;;;4.03;3.53;;;19.10;91.50;;;;;;5058372;28;20545;-48
2022/07/11 04:28:33;;;;;;;4.60;4.20;;;19.00;91.50;;;;;;5049522;28;20486;-48
2022/07/11 04:30:59;;;;;;;6.10;5.03;;;19.00;91.70;;;;;;5052127;28;20510;-48
2022/07/11 04:33:28;;;;;;;5.10;4.60;;;19.00;91.60;;;;;;5053392;28;20838;-48
2022/07/11 04:35:54;;;;;;;4.53;4.13;;;18.90;92.00;;;;;;5054978;28;20566;-52
2022/07/11 04:38:22;;;;;;;3.90;3.60;;;18.70;92.80;;;;;;5050822;28;20490;-48
2022/07/11 04:40:49;;;;;;;4.97;4.13;;;18.60;92.80;;;;;;5056409;28;20479;-48
2022/07/11 04:43:16;;;;;;;4.93;4.13;;;18.40;93.20;;;;;;5051463;28;21576;-49
2022/07/11 04:45:42;;;;;;;4.53;4.13;;;18.40;93.20;;;;;;5054067;28;20925;-49
2022/07/11 04:48:09;;;;;;;4.77;4.37;;;18.50;93.20;;;;;;5054786;28;21036;-48
2022/07/11 04:50:37;;;;;;;6.30;5.77;;;18.50;93.50;;;;;;5052265;28;20494;-49
2022/07/11 04:53:04;;;;;;;12.83;4.93;;;18.70;92.90;;;;;;5052170;28;20480;-48
2022/07/11 04:55:31;;;;;;;8.70;4.93;;;18.70;92.80;;;;;;5058134;28;20482;-49
2022/07/11 04:57:58;;;;;;;5.00;4.60;;;18.80;92.70;;;;;;5057728;28;20478;-49
2022/07/11 05:00:24;;;;;;;6.07;5.33;;;18.90;92.20;;;;;;5061709;28;20474;-49
2022/07/11 05:02:51;;;;;;;4.63;4.20;;;19.00;92.20;;;;;;5058549;28;20479;-49
2022/07/11 05:05:19;;;;;;;3.97;3.67;;;19.00;92.00;;;;;;5062122;28;20482;-49
2022/07/11 05:07:47;;;;;;;10.50;5.57;;;19.10;91.40;;;;;;5059593;28;20934;-49
2022/07/11 05:10:14;;;;;;;4.80;4.30;;;19.20;91.90;;;;;;5056456;28;20743;-49
2022/07/11 05:12:40;;;;;;;6.30;4.70;;;19.30;91.60;;;;;;5056585;28;20483;-49
2022/07/11 05:15:08;;;;;;;8.70;4.57;;;19.20;91.70;;;;;;5061730;28;20489;-49
2022/07/11 05:17:35;;;;;;;5.37;4.87;;;19.20;91.60;;;;;;5064449;28;20497;-49
2022/07/11 05:20:02;;;;;;;4.33;3.87;;;19.20;91.50;;;;;;5056915;28;20479;-49
2022/07/11 05:22:28;;;;;;;6.97;3.80;;;19.30;91.70;;;;;;5057167;28;20489;-51
2022/07/11 05:24:57;;;;;;;6.30;4.53;;;19.30;91.60;;;;;;5059694;28;20483;-49
2022/07/11 05:27:23;;;;;;;5.10;4.60;;;19.40;91.70;;;;;;5058829;28;20474;-50
2022/07/11 05:29:50;;;;;;;5.33;4.00;;;19.40;91.30;;;;;;5057557;28;20470;-49
2022/07/11 05:32:17;;;;;;;5.00;4.23;;;19.40;91.00;;;;;;5059258;28;20498;-49
2022/07/11 05:34:44;;;;;;;5.47;4.97;;;19.50;91.10;;;;;;5059500;28;20854;-48
2022/07/11 05:37:11;;;;;;;8.67;4.87;;;19.60;90.90;;;;;;5060413;28;20483;-49
2022/07/11 05:39:37;;;;;;;6.13;5.53;;;19.60;91.20;;;;;;5058490;28;20513;-49
2022/07/11 05:42:07;;;;;;;6.43;4.70;;;19.70;90.60;;;;;;5056218;28;20486;-49
2022/07/11 05:44:34;;;;;;;6.30;4.50;;;19.90;90.00;;;;;;5060362;28;20487;-49
2022/07/11 05:47:01;;;;;;;3.53;3.23;;;20.00;89.30;;;;;;5057159;28;20571;-50
2022/07/11 05:49:28;;;;;;;4.93;4.47;;;20.10;88.70;;;;;;5051706;28;21064;-49
2022/07/11 05:51:55;;;;;;;4.40;3.40;;;20.20;88.80;;;;;;5055315;28;20488;-49
2022/07/11 05:54:22;;;;;;;5.70;4.50;;;20.40;89.40;;;;;;5059321;28;20570;-49
2022/07/11 05:56:48;;;;;;;4.53;3.83;;;20.60;88.50;;;;;;5050609;28;20991;-49
2022/07/11 05:59:16;;;;;;;4.63;3.30;;;20.70;87.60;;;;;;5058167;28;20474;-49
2022/07/11 06:01:43;;;;;;;4.43;4.03;;;20.60;87.40;;;;;;5049331;28;21072;-49
2022/07/11 06:04:10;;;;;;;4.77;3.87;;;20.60;87.10;;;;;;5044280;28;20506;-49
2022/07/11 06:06:37;;;;;;;4.70;4.30;;;20.50;88.10;;;;;;5056362;28;20575;-50
2022/07/11 06:09:03;;;;;;;3.90;3.50;;;20.60;87.90;;;;;;5055675;28;20464;-49
2022/07/11 06:11:31;;;;;;;5.53;4.53;;;20.60;87.80;;;;;;5062168;28;20494;-49
2022/07/11 06:13:58;;;;;;;6.30;3.63;;;20.80;87.70;;;;;;5058510;28;20508;-49
2022/07/11 06:16:26;;;;;;;4.50;4.10;;;20.80;87.90;;;;;;5057027;28;20494;-49
2022/07/11 06:18:52;;;;;;;7.00;4.00;;;21.00;88.80;;;;;;5047568;28;20877;-49
2022/07/11 06:21:20;;;;;;;5.03;3.87;;;21.10;87.90;;;;;;5059758;28;20491;-49
2022/07/11 06:23:47;;;;;;;7.70;3.87;;;21.30;87.70;;;;;;5052957;28;20535;-50
2022/07/11 06:26:15;;;;;;;6.33;3.83;;;21.50;85.30;;;;;;5058733;28;20484;-49
2022/07/11 06:28:42;;;;;;;6.07;4.13;;;21.40;84.90;;;;;;5056416;28;21054;-49
2022/07/11 06:31:09;;;;;;;4.60;3.70;;;21.60;86.30;;;;;;5055114;28;20482;-50
2022/07/11 06:33:37;;;;;;;5.10;4.60;;;21.80;85.70;;;;;;5056114;28;20982;-50
2022/07/11 06:36:05;;;;;;;7.37;3.90;;;21.90;84.30;;;;;;5058821;28;20987;-50
2022/07/11 06:38:33;;;;;;;6.10;3.73;;;22.00;84.50;;;;;;5054868;28;20501;-50
2022/07/11 06:41:00;;;;;;;6.93;3.80;;;22.20;84.20;;;;;;5051794;28;20508;-50
2022/07/11 06:43:28;;;;;;;5.60;3.33;;;22.30;84.10;;;;;;5048033;28;20483;-50
2022/07/11 06:45:55;;;;;;;4.97;3.70;;;22.50;83.80;;;;;;5055136;28;20482;-50
2022/07/11 06:48:22;;;;;;;5.70;3.50;;;22.60;83.20;;;;;;5047308;28;21229;-50
2022/07/11 06:50:50;;;;;;;4.90;4.20;;;22.60;83.00;;;;;;5057171;28;20490;-50
2022/07/11 06:53:17;;;;;;;6.60;4.90;;;22.80;82.20;;;;;;5052945;28;20486;-50
2022/07/11 06:55:44;;;;;;;4.50;4.10;;;22.90;82.40;;;;;;5058611;28;20479;-51
2022/07/11 06:58:10;;;;;;;5.67;3.60;;;23.00;82.10;;;;;;5047670;28;20950;-50
2022/07/11 07:00:37;;;;;;;4.13;3.73;;;23.10;83.30;;;;;;5048871;28;20491;-51
2022/07/11 07:03:04;;;;;;;5.13;4.33;;;23.40;81.70;;;;;;5056118;28;20490;-50
2022/07/11 07:05:31;;;;;;;5.37;3.63;;;23.60;80.90;;;;;;5050237;28;20490;-50
2022/07/11 07:07:59;;;;;;;7.23;3.73;;;23.80;80.20;;;;;;5045552;28;20498;-51
2022/07/11 07:10:26;;;;;;;4.00;3.60;;;23.90;80.20;;;;;;5054537;28;20486;-50
2022/07/11 07:12:52;;;;;;;7.93;3.20;;;24.00;79.30;;;;;;5054495;28;20473;-50
2022/07/11 07:15:19;;;;;;;9.30;3.80;;;24.20;78.80;;;;;;5058149;28;20487;-51
2022/07/11 07:17:46;;;;;;;6.70;3.90;;;24.30;78.90;;;;;;5056237;28;20487;-50
2022/07/11 07:20:13;;;;;;;4.80;3.60;;;24.40;78.60;;;;;;5053502;28;20482;-50
2022/07/11 07:22:40;;;;;;;7.40;3.90;;;24.50;78.90;;;;;;5057129;28;20475;-50
2022/07/11 07:25:09;;;;;;;6.97;3.70;;;24.60;79.00;;;;;;5049025;28;20478;-51
2022/07/11 07:27:36;;;;;;;5.60;3.50;;;24.70;76.90;;;;;;5058845;28;20578;-52
2022/07/11 07:30:04;;;;;;;3.20;2.67;;;24.80;77.20;;;;;;5052232;28;20952;-50
2022/07/11 07:32:31;;;;;;;7.90;3.13;;;;;;;;;;5058606;28;20863;-51
2022/07/11 07:34:58;;;;;;;4.73;2.87;;;25.10;77.10;;;;;;5058292;28;20950;-51
2022/07/11 07:37:25;;;;;;;4.33;2.77;;;25.20;76.50;;;;;;5053707;28;21008;-50
2022/07/11 07:39:52;;;;;;;5.87;3.47;;;;;;;;;;5062708;28;20494;-50
2022/07/11 07:42:20;;;;;;;3.90;2.30;;;25.30;75.40;;;;;;5050254;28;21230;-50
2022/07/11 07:44:47;;;;;;;2.53;2.30;;;25.30;74.90;;;;;;5061225;28;21024;-50
2022/07/11 07:47:14;;;;;;;4.87;2.20;;;25.30;75.70;;;;;;5039217;28;20925;-49
2022/07/11 07:49:40;;;;;;;4.67;2.90;;;25.40;75.70;;;;;;5060134;28;21020;-50
2022/07/11 07:52:07;;;;;;;3.57;2.33;;;25.40;76.60;;;;;;5055747;28;20479;-50
2022/07/11 07:54:34;;;;;;;4.83;2.27;;;;;;;;;;5062536;28;20479;-50
2022/07/11 07:57:01;;;;;;;3.30;2.00;;;26.00;74.80;;;;;;5058818;28;20485;-51
2022/07/11 07:59:29;;;;;;;3.00;2.20;;;26.10;73.40;;;;;;5061191;28;20828;-51
2022/07/11 08:01:55;;;;;;;5.80;2.43;;;25.90;73.30;;;;;;5057867;28;20480;-51
2022/07/11 08:04:21;;;;;;;2.73;2.33;;;25.80;73.90;;;;;;5061574;28;20490;-51
2022/07/11 08:06:48;;;;;;;2.47;1.90;;;25.80;74.00;;;;;;5050745;28;20233;-50
2022/07/11 08:09:15;;;;;;;2.57;2.10;;;25.80;74.40;;;;;;5061568;28;20486;-51
2022/07/11 08:11:42;;;;;;;3.50;1.60;;;25.90;74.00;;;;;;5060637;28;20470;-51
2022/07/11 08:14:09;;;;;;;2.70;2.30;;;26.10;74.20;;;;;;5053624;28;20562;-50
2022/07/11 08:16:38;;;;;;;4.70;2.20;;;26.20;75.00;;;;;;5046859;28;20563;-51
2022/07/11 08:19:06;;;;;;;2.67;1.73;;;26.40;72.60;;;;;;5056761;28;21004;-51
2022/07/11 08:21:34;;;;;;;3.60;2.50;;;26.40;73.30;;;;;;5065060;28;20490;-51
2022/07/11 08:24:01;;;;;;;3.80;2.63;;;26.40;73.50;;;;;;5063589;28;21047;-51
2022/07/11 08:26:28;;;;;;;2.00;1.60;;;26.30;74.20;;;;;;5059448;28;20494;-50
2022/07/11 08:28:55;;;;;;;3.70;1.97;;;26.10;72.40;;;;;;5049638;28;20475;-52
2022/07/11 08:31:21;;;;;;;3.33;2.33;;;25.90;73.00;;;;;;5060512;28;20481;-51
2022/07/11 08:33:50;;;;;;;6.63;2.00;;;25.80;73.40;;;;;;5033039;28;20482;-51
2022/07/11 08:36:17;;;;;;;3.13;1.53;;;25.70;73.70;;;;;;5063014;28;20462;-51
2022/07/11 08:38:46;;;;;;;2.20;1.93;;;25.60;73.70;;;;;;5060319;28;20498;-51
2022/07/11 08:41:13;;;;;;;3.07;1.60;;;25.60;74.40;;;;;;5062927;28;20490;-51
2022/07/11 08:43:42;;;;;;;2.40;1.47;;;25.40;73.40;;;;;;5061284;28;20474;-51
2022/07/11 08:46:11;;;;;;;2.63;1.60;;;25.40;73.90;;;;;;5049574;28;20486;-51
2022/07/11 08:48:39;;;;;;;2.27;1.80;;;25.30;74.60;;;;;;5054282;28;20594;-51
2022/07/11 08:51:08;;;;;;;2.53;1.47;;;25.30;74.00;;;;;;5058431;28;21342;-51
2022/07/11 08:53:40;;;;;;;4.97;1.67;;;25.30;73.30;;;;;;5054732;28;20606;-51
2022/07/11 08:56:14;;;;;;;1.90;1.50;;;25.40;74.20;;;;;;5057546;28;21176;-51
2022/07/11 08:58:45;;;;;;;2.30;1.33;;;25.60;74.70;;;;;;5048230;28;20512;-51
2022/07/11 09:01:16;;;;;;;2.23;1.30;;;25.90;74.30;;;;;;5063130;28;20510;-51
2022/07/11 09:03:43;;;;;;;2.30;1.60;;;26.60;73.80;;;;;;5059830;28;20479;-52
2022/07/11 09:06:13;;;;;;;6.50;1.93;;;27.00;73.60;;;;;;5061129;28;20494;-51
2022/07/11 09:08:40;;;;;;;2.63;1.37;;;27.00;71.60;;;;;;5059813;28;20907;-52
2022/07/11 09:11:06;;;;;;;1.90;1.50;;;26.90;71.80;;;;;;5056986;28;20590;-52
2022/07/11 09:13:34;;;;;;;3.60;1.17;;;26.90;71.30;;;;;;5057027;28;20495;-52
2022/07/11 09:16:05;;;;;;;4.07;1.20;;;27.00;71.20;;;;;;5057941;28;20562;-52
2022/07/11 09:18:35;;;;;;;2.07;1.00;;;27.00;71.60;;;;;;5059188;28;20546;-51
2022/07/11 09:26:37;;;;;;;2.67;1.63;;;26.90;70.60;;;;;;5056504;28;20502;-51
2022/07/11 09:29:07;;;;;;;3.23;1.30;;;26.80;71.20;;;;;;5059580;28;20470;-51
2022/07/11 09:31:35;;;;;;;3.13;1.33;;;26.70;71.20;;;;;;5051054;28;20494;-51
2022/07/11 09:34:08;;;;;;;2.83;1.60;;;26.70;72.00;;;;;;5058735;28;20843;-51
2022/07/11 09:36:40;;;;;;;2.97;1.40;;;26.70;71.70;;;;;;5051138;28;20590;-50
2022/07/11 09:39:10;;;;;;;3.30;1.40;;;26.70;70.80;;;;;;5059372;28;20489;-52
2022/07/11 09:41:38;;;;;;;3.30;1.47;;;26.70;71.00;;;;;;5059585;28;20976;-52
2022/07/11 09:44:09;;;;;;;3.30;1.33;;;26.90;71.90;;;;;;5058660;28;20487;-51
2022/07/11 09:46:36;;;;;;;2.13;1.13;;;26.90;72.80;;;;;;5056790;28;20510;-53
2022/07/11 09:49:04;;;;;;;2.00;1.50;;;27.10;71.40;;;;;;5058539;28;20482;-52
2022/07/11 09:51:32;;;;;;;1.80;1.13;;;27.00;71.00;;;;;;5056830;28;20549;-52
2022/07/11 09:53:59;;;;;;;2.73;1.30;;;27.00;71.50;;;;;;5060115;28;20992;-51
2022/07/11 09:56:33;;;;;;;2.30;1.27;;;26.90;70.80;;;;;;5058606;28;21184;-51
2022/07/11 09:59:00;;;;;;;3.27;1.50;;;26.70;71.20;;;;;;5057901;28;20996;-52
2022/07/11 10:01:28;;;;;;;2.70;1.87;;;26.60;71.20;;;;;;5058654;28;20515;-52
2022/07/11 10:03:55;;;;;;;3.47;1.43;;;26.40;71.00;;;;;;5061638;28;20498;-51
2022/07/11 10:06:22;;;;;;;3.20;2.07;;;26.40;72.00;;;;;;5057320;28;20482;-51
2022/07/11 10:08:49;;;;;;;2.30;1.27;;;26.40;71.80;;;;;;5060392;28;20563;-51
2022/07/11 10:11:16;;;;;;;3.20;1.57;;;26.50;71.70;;;;;;5060938;28;20472;-52
2022/07/11 10:13:45;;;;;;;2.50;1.30;;;26.50;72.70;;;;;;5063309;28;20486;-52
2022/07/11 10:16:23;;;;;;;1.90;1.33;;;26.50;72.00;;;;;;5056932;28;20486;-52
2022/07/11 10:19:02;;;;;;;1.90;1.30;;;26.60;71.20;;;;;;5058717;28;20498;-52
2022/07/11 10:21:39;;;;;;;2.33;1.70;;;26.60;72.80;;;;;;5041715;28;20785;-51
2022/07/11 10:24:19;;;;;;;2.20;1.40;;;26.70;73.30;;;;;;5055219;28;20551;-52
2022/07/11 10:27:00;;;;;;;2.20;1.20;;;27.10;72.30;;;;;;5052149;28;20467;-53
2022/07/11 10:29:34;;;;;;;3.43;2.20;;;27.20;73.10;;;;;;5055985;28;20478;-54
2022/07/11 10:32:06;;;;;;;3.03;1.77;;;27.10;70.40;;;;;;5059508;28;20529;-52
2022/07/11 10:34:32;;;;;;;3.07;1.60;;;27.00;71.10;;;;;;5057780;28;20458;-52
2022/07/11 10:37:02;;;;;;;1.80;1.10;;;27.00;71.10;;;;;;5057756;28;20486;-52
2022/07/11 10:39:29;;;;;;;4.00;1.60;;;26.90;71.20;;;;;;5058662;28;20562;-50
2022/07/11 10:41:57;;;;;;;2.63;1.70;;;26.90;70.80;;;;;;5051360;28;20479;-52
2022/07/11 10:44:24;;;;;;;3.50;1.77;;;27.00;72.00;;;;;;5035294;28;20474;-52
2022/07/11 10:46:53;;;;;;;2.10;1.57;;;27.00;71.50;;;;;;5059525;28;20473;-51
2022/07/11 10:49:38;;;;;;;1.90;1.37;;;27.00;71.70;;;;;;5060407;28;20974;-52
2022/07/11 10:52:07;;;;;;;2.57;1.83;;;27.00;72.00;;;;;;5062546;28;20609;-52
2022/07/11 10:54:51;;;;;;;2.00;1.40;;;27.00;71.90;;;;;;5058970;28;20549;-52
2022/07/11 10:57:23;;;;;;;1.80;1.30;;;27.00;70.90;;;;;;5047513;28;20539;-52
2022/07/11 10:59:58;;;;;;;2.00;1.50;;;27.40;72.90;;;;;;5043070;28;20475;-51
2022/07/11 11:02:26;;;;;;;2.20;1.70;;;27.70;72.70;;;;;;5019735;28;20482;-52
2022/07/11 11:04:57;;;;;;;4.33;1.93;;;27.70;70.50;;;;;;5057088;28;20486;-52
2022/07/11 11:07:41;;;;;;;2.57;1.53;;;27.90;71.30;;;;;;5050270;28;20493;-51
2022/07/11 11:10:49;;;;;;;3.60;1.57;;;28.20;70.10;;;;;;5058448;28;20449;-53
2022/07/11 11:13:16;;;;;;;3.70;1.20;;;28.50;68.60;;;;;;5053985;28;20482;-54
2022/07/11 11:15:48;;;;;;;1.97;1.10;;;28.50;69.30;;;;;;5054553;28;21309;-52
2022/07/11 11:18:37;;;;;;;1.90;1.30;;;28.40;69.60;;;;;;5056386;28;20478;-52
2022/07/11 11:21:25;;;;;;;2.00;1.47;;;28.40;69.20;;;;;;5046782;28;20625;-53
2022/07/11 11:24:11;;;;;;;2.40;1.80;;;28.50;70.60;;;;;;5059052;28;20483;-52
2022/07/11 11:26:50;;;;;;;1.80;1.10;;;28.60;69.30;;;;;;5053351;28;20479;-52
2022/07/11 11:29:25;;;;;;;2.00;1.60;;;28.70;67.90;;;;;;5058420;28;20482;-52
2022/07/11 11:31:56;;;;;;;2.00;1.20;;;28.70;69.60;;;;;;5060310;28;20528;-52
2022/07/11 11:34:25;;;;;;;2.30;1.60;;;28.60;68.80;;;;;;5062127;28;20489;-53
2022/07/11 11:37:01;;;;;;;2.57;1.30;;;28.50;68.80;;;;;;5053489;28;20475;-52
2022/07/11 11:39:32;;;;;;;1.90;1.33;;;28.30;69.00;;;;;;5058699;28;20486;-52
2022/07/11 11:42:05;;;;;;;1.80;1.30;;;27.90;68.50;;;;;;5047185;28;20828;-53
2022/07/11 11:44:32;;;;;;;2.30;1.40;;;28.00;69.60;;;;;;5059076;28;20464;-52
2022/07/11 11:46:59;;;;;;;3.07;1.80;;;28.00;69.90;;;;;;5056416;28;20498;-54
2022/07/11 11:49:27;;;;;;;2.33;1.37;;;28.20;70.20;;;;;;5057341;28;20487;-52
2022/07/11 11:51:55;;;;;;;5.93;1.47;;;28.40;69.10;;;;;;5059353;28;20478;-54
2022/07/11 11:54:24;;;;;;;3.63;2.20;;;28.40;68.70;;;;;;5059773;28;20571;-53
2022/07/11 11:56:50;;;;;;;2.00;1.30;;;28.50;69.80;;;;;;5054952;28;20571;-51
2022/07/11 11:59:17;;;;;;;1.90;1.40;;;28.50;67.80;;;;;;5057578;28;20479;-52
2022/07/11 12:01:46;;;;;;;2.20;1.60;;;28.50;69.60;;;;;;5057699;28;20483;-52
2022/07/11 12:04:15;;;;;;;3.13;1.27;;;28.60;70.20;;;;;;5055808;28;20537;-53
2022/07/11 12:06:46;;;;;;;2.07;1.33;;;28.70;70.00;;;;;;5051220;28;20461;-52
2022/07/11 12:09:15;;;;;;;3.20;2.37;;;28.80;69.70;;;;;;5059772;28;20483;-53
2022/07/11 12:11:43;;;;;;;3.43;1.40;;;28.90;68.90;;;;;;5056045;28;20748;-55
2022/07/11 12:14:11;;;;;;;2.90;1.47;;;28.90;68.90;;;;;;5055498;28;20498;-52
2022/07/11 12:16:42;;;;;;;2.20;1.57;;;28.70;68.20;;;;;;5053446;28;20496;-53
2022/07/11 12:19:11;;;;;;;2.00;1.60;;;28.80;68.60;;;;;;5055316;28;20935;-53
2022/07/11 12:21:39;;;;;;;1.97;1.57;;;28.80;69.40;;;;;;5059340;28;20562;-52
2022/07/11 12:24:10;;;;;;;2.03;1.63;;;28.90;69.30;;;;;;5051652;28;20558;-51
2022/07/11 12:26:39;;;;;;;2.57;1.67;;;29.00;69.10;;;;;;5050493;28;20487;-54
2022/07/11 12:29:09;;;;;;;2.20;1.90;;;29.00;67.60;;;;;;5058486;28;20489;-52
2022/07/11 12:31:47;;;;;;;2.80;1.77;;;29.30;68.30;;;;;;5057018;28;20478;-52
2022/07/11 12:34:16;;;;;;;2.10;1.67;;;29.20;68.80;;;;;;5060744;28;20453;-52
2022/07/11 12:36:42;;;;;;;2.80;2.07;;;29.20;67.00;;;;;;5051431;28;20454;-53
2022/07/11 12:39:11;;;;;;;3.00;2.40;;;29.30;68.70;;;;;;5059287;28;20464;-52
2022/07/11 12:41:37;;;;;;;2.67;2.20;;;29.30;69.00;;;;;;5058268;28;20454;-53
2022/07/11 12:46:49;;;;;;;2.60;2.40;;;29.60;67.80;;;;;;5054453;28;20485;-53
2022/07/11 12:49:16;;;;;;;2.83;2.57;;;29.60;67.20;;;;;;5055959;28;20513;-53
2022/07/11 12:51:45;;;;;;;2.37;2.10;;;29.60;67.90;;;;;;5059044;28;20513;-53
2022/07/11 12:54:15;;;;;;;4.10;2.63;;;29.80;66.50;;;;;;5060449;28;20486;-52
2022/07/11 12:56:52;;;;;;;2.40;2.20;;;30.00;68.40;;;;;;5056672;28;20469;-54
2022/07/11 12:59:21;;;;;;;3.80;2.50;;;29.70;66.70;;;;;;5047358;28;20506;-53
2022/07/11 13:02:03;;;;;;;2.60;2.40;;;29.70;66.90;;;;;;5057331;28;20556;-52